الصفحة الرئيسية
METAR-TAF:

METAR-TAF

مطار :

فيساخاباتنام, الهند

دائرة عرض: 17-43-16N, خط طول: 83-13-28E, ارتفاع: 6 متر

مراقبة الطقس الحالي

تاريخ ووقت الإصدار 26 دقيقة قبل الساعة 09:00UTC
ريح 8 عقدة من الشرق/الجنوب الشرقي
درجة الحرارة 28°درجة مئوية
الرطوبة 66%
ضغط 1009 hPa
الرؤية: 3000 متر
غيوم قليلة على ارتفاع 1800 قدم
غيوم متفرقة على ارتفاع 8000 قدم
العجاج

METAR: VOVZ 260900Z 11008KT 3000 HZ FEW018 SCT080 28/21 Q1009 NOSIG

زمن: 14:56 (09:26 UTC)

توقعات

تاريخ ووقت الإصدار 1ساعة و 26 دقيقة قبل الساعة 08:00UTC
التوقعات صالحة من26 الساعة 09 UTC إلى 26 الساعة 18 UTC
ريح 8 عقدة من الجنوب الشرقي
الرؤية: 3500 متر
غيوم قليلة على ارتفاع 1800 قدم
غيوم متفرقة على ارتفاع 8000 قدم
العجاج
أصبح
من 26 الساعة 14 UTC إلى 26 الساعة 16 UTC
ريح 2 عقدةمن اتجاهات متغيرة
الرؤية: 3000 متر
غشاء

TAF: VOVZ 260800Z 2609/2618 13008KT 3500 HZ FEW018 SCT080 BECMG 2614/2616 VRB02KT 3000 BR

أرصاد الطقس والتوقعات من أكثر من 4000 مطار (تقارير الطقس للمطار METAR والتنبؤ بالطقس بالمطارTAF).

المحطات المتاحة هي النقط الصفراء والحمراء على الخريطة.

حرك المؤشر فوق النقطة لمعرفة اسم المحطة.

ثم انقر لمعرفة أرصاد وتوقعات الطقس.

لتغيير الخارطة: اضغط على الأزرار الخضراء مع رمز الصليب الأسود للتكبير. على الزر الأخضر مع شرطة للتصغير، أو على الأسهم الخضراء للخرائط المجاورة.


METAR-TAF: